sensor_id;sensor_type;location;lat;lon;timestamp;pressure;altitude;pressure_sealevel;temperature;humidity
9077;BME280;4574;51.072;17.174;2023-11-19T00:00:28;100662.31;;;3.71;100.00
9077;BME280;4574;51.072;17.174;2023-11-19T00:02:57;100675.59;;;3.68;100.00
9077;BME280;4574;51.072;17.174;2023-11-19T00:05:25;100666.69;;;3.70;100.00
9077;BME280;4574;51.072;17.174;2023-11-19T00:07:56;100671.09;;;3.70;100.00
9077;BME280;4574;51.072;17.174;2023-11-19T00:10:24;100669.41;;;3.69;100.00
9077;BME280;4574;51.072;17.174;2023-11-19T00:12:53;100646.69;;;3.69;100.00
9077;BME280;4574;51.072;17.174;2023-11-19T00:15:24;100639.00;;;3.66;100.00
9077;BME280;4574;51.072;17.174;2023-11-19T00:17:52;100630.34;;;3.52;100.00
9077;BME280;4574;51.072;17.174;2023-11-19T00:20:24;100626.78;;;3.53;100.00
9077;BME280;4574;51.072;17.174;2023-11-19T00:22:52;100614.63;;;3.52;100.00
9077;BME280;4574;51.072;17.174;2023-11-19T00:25:22;100616.31;;;3.53;100.00
9077;BME280;4574;51.072;17.174;2023-11-19T00:27:52;100625.09;;;3.52;100.00
9077;BME280;4574;51.072;17.174;2023-11-19T00:30:21;100610.59;;;3.46;100.00
9077;BME280;4574;51.072;17.174;2023-11-19T00:32:49;100598.63;;;3.42;100.00
9077;BME280;4574;51.072;17.174;2023-11-19T00:35:18;100606.66;;;3.39;100.00
9077;BME280;4574;51.072;17.174;2023-11-19T00:37:46;100597.97;;;3.39;100.00
9077;BME280;4574;51.072;17.174;2023-11-19T00:40:16;100581.81;;;3.32;100.00
9077;BME280;4574;51.072;17.174;2023-11-19T00:42:47;100587.03;;;3.32;100.00
9077;BME280;4574;51.072;17.174;2023-11-19T00:45:15;100586.84;;;3.35;100.00
9077;BME280;4574;51.072;17.174;2023-11-19T00:47:44;100575.72;;;3.32;100.00
9077;BME280;4574;51.072;17.174;2023-11-19T00:50:12;100561.81;;;3.31;100.00
9077;BME280;4574;51.072;17.174;2023-11-19T00:52:41;100543.78;;;3.27;100.00
9077;BME280;4574;51.072;17.174;2023-11-19T00:55:09;100537.97;;;3.22;100.00
9077;BME280;4574;51.072;17.174;2023-11-19T00:57:38;100537.34;;;3.18;100.00
9077;BME280;4574;51.072;17.174;2023-11-19T01:00:09;100532.09;;;3.18;100.00
9077;BME280;4574;51.072;17.174;2023-11-19T01:02:46;100533.13;;;3.16;100.00
9077;BME280;4574;51.072;17.174;2023-11-19T01:05:18;100526.38;;;3.12;100.00
9077;BME280;4574;51.072;17.174;2023-11-19T01:07:50;100518.84;;;3.07;100.00
9077;BME280;4574;51.072;17.174;2023-11-19T01:10:21;100520.34;;;3.11;100.00
9077;BME280;4574;51.072;17.174;2023-11-19T01:12:51;100501.19;;;3.11;100.00
9077;BME280;4574;51.072;17.174;2023-11-19T01:15:21;100497.44;;;3.01;100.00
9077;BME280;4574;51.072;17.174;2023-11-19T01:17:50;100485.09;;;3.03;100.00
9077;BME280;4574;51.072;17.174;2023-11-19T01:20:20;100486.03;;;3.02;100.00
9077;BME280;4574;51.072;17.174;2023-11-19T01:22:48;100472.97;;;2.88;100.00
9077;BME280;4574;51.072;17.174;2023-11-19T01:25:17;100467.19;;;2.83;100.00
9077;BME280;4574;51.072;17.174;2023-11-19T01:27:46;100460.28;;;2.82;100.00
9077;BME280;4574;51.072;17.174;2023-11-19T01:30:15;100444.59;;;2.82;100.00
9077;BME280;4574;51.072;17.174;2023-11-19T01:32:45;100436.75;;;2.82;100.00
9077;BME280;4574;51.072;17.174;2023-11-19T01:35:14;100440.47;;;2.78;100.00
9077;BME280;4574;51.072;17.174;2023-11-19T01:37:42;100434.44;;;2.77;100.00
9077;BME280;4574;51.072;17.174;2023-11-19T01:40:11;100434.69;;;2.73;100.00
9077;BME280;4574;51.072;17.174;2023-11-19T01:42:41;100431.31;;;2.71;100.00
9077;BME280;4574;51.072;17.174;2023-11-19T01:45:21;100412.28;;;2.69;100.00
9077;BME280;4574;51.072;17.174;2023-11-19T01:47:52;100418.44;;;2.68;100.00
9077;BME280;4574;51.072;17.174;2023-11-19T01:50:21;100417.63;;;2.67;100.00
9077;BME280;4574;51.072;17.174;2023-11-19T01:52:52;100422.00;;;2.67;100.00
9077;BME280;4574;51.072;17.174;2023-11-19T01:55:21;100421.25;;;2.65;100.00
9077;BME280;4574;51.072;17.174;2023-11-19T01:57:50;100421.44;;;2.62;100.00
9077;BME280;4574;51.072;17.174;2023-11-19T02:00:21;100409.66;;;2.55;100.00
9077;BME280;4574;51.072;17.174;2023-11-19T02:02:52;100401.81;;;2.55;100.00
9077;BME280;4574;51.072;17.174;2023-11-19T02:05:22;100407.53;;;2.62;100.00
9077;BME280;4574;51.072;17.174;2023-11-19T02:07:50;100393.06;;;2.56;100.00
9077;BME280;4574;51.072;17.174;2023-11-19T02:10:19;100382.34;;;2.61;100.00
9077;BME280;4574;51.072;17.174;2023-11-19T02:12:51;100390.06;;;2.62;100.00
9077;BME280;4574;51.072;17.174;2023-11-19T02:15:31;100399.03;;;2.58;100.00
9077;BME280;4574;51.072;17.174;2023-11-19T02:18:19;100395.97;;;2.65;100.00
9077;BME280;4574;51.072;17.174;2023-11-19T02:20:49;100381.50;;;2.60;100.00
9077;BME280;4574;51.072;17.174;2023-11-19T02:23:18;100381.69;;;2.57;100.00
9077;BME280;4574;51.072;17.174;2023-11-19T02:25:54;100368.72;;;2.56;100.00
9077;BME280;4574;51.072;17.174;2023-11-19T02:28:26;100356.09;;;2.48;100.00
9077;BME280;4574;51.072;17.174;2023-11-19T02:30:55;100367.00;;;2.55;100.00
9077;BME280;4574;51.072;17.174;2023-11-19T02:33:24;100365.06;;;2.58;100.00
9077;BME280;4574;51.072;17.174;2023-11-19T02:35:52;100353.13;;;2.54;100.00
9077;BME280;4574;51.072;17.174;2023-11-19T02:38:21;100359.84;;;2.58;100.00
9077;BME280;4574;51.072;17.174;2023-11-19T02:40:49;100349.50;;;2.57;100.00
9077;BME280;4574;51.072;17.174;2023-11-19T02:43:18;100347.53;;;2.46;100.00
9077;BME280;4574;51.072;17.174;2023-11-19T02:45:48;100345.28;;;2.54;100.00
9077;BME280;4574;51.072;17.174;2023-11-19T02:48:17;100345.38;;;2.53;100.00
9077;BME280;4574;51.072;17.174;2023-11-19T02:50:46;100337.44;;;2.54;100.00
9077;BME280;4574;51.072;17.174;2023-11-19T02:53:15;100342.84;;;2.51;100.00
9077;BME280;4574;51.072;17.174;2023-11-19T02:55:44;100346.41;;;2.50;100.00
9077;BME280;4574;51.072;17.174;2023-11-19T02:58:17;100343.59;;;2.53;100.00
9077;BME280;4574;51.072;17.174;2023-11-19T03:00:52;100336.78;;;2.51;100.00
9077;BME280;4574;51.072;17.174;2023-11-19T03:03:25;100326.13;;;2.54;100.00
9077;BME280;4574;51.072;17.174;2023-11-19T03:05:58;100327.06;;;2.53;100.00
9077;BME280;4574;51.072;17.174;2023-11-19T03:08:26;100303.88;;;2.48;100.00
9077;BME280;4574;51.072;17.174;2023-11-19T03:10:54;100301.31;;;2.47;100.00
9077;BME280;4574;51.072;17.174;2023-11-19T03:13:23;100293.41;;;2.48;100.00
9077;BME280;4574;51.072;17.174;2023-11-19T03:15:53;100291.72;;;2.47;100.00
9077;BME280;4574;51.072;17.174;2023-11-19T03:18:22;100292.47;;;2.49;100.00
9077;BME280;4574;51.072;17.174;2023-11-19T03:20:50;100285.75;;;2.45;100.00
9077;BME280;4574;51.072;17.174;2023-11-19T03:23:19;100269.91;;;2.48;100.00
9077;BME280;4574;51.072;17.174;2023-11-19T03:25:47;100272.91;;;2.42;100.00
9077;BME280;4574;51.072;17.174;2023-11-19T03:28:16;100263.94;;;2.46;100.00
9077;BME280;4574;51.072;17.174;2023-11-19T03:30:44;100261.69;;;2.40;100.00
9077;BME280;4574;51.072;17.174;2023-11-19T03:33:14;100262.44;;;2.42;100.00
9077;BME280;4574;51.072;17.174;2023-11-19T03:35:43;100259.72;;;2.44;100.00
9077;BME280;4574;51.072;17.174;2023-11-19T03:38:11;100259.66;;;2.45;100.00
9077;BME280;4574;51.072;17.174;2023-11-19T03:40:39;100263.00;;;2.47;100.00
9077;BME280;4574;51.072;17.174;2023-11-19T03:43:08;100259.91;;;2.41;100.00
9077;BME280;4574;51.072;17.174;2023-11-19T03:45:37;100246.66;;;2.44;100.00
9077;BME280;4574;51.072;17.174;2023-11-19T03:48:05;100232.97;;;2.40;100.00
9077;BME280;4574;51.072;17.174;2023-11-19T03:50:35;100226.69;;;2.43;100.00
9077;BME280;4574;51.072;17.174;2023-11-19T03:53:04;100225.03;;;2.42;100.00
9077;BME280;4574;51.072;17.174;2023-11-19T03:55:32;100219.81;;;2.42;100.00
9077;BME280;4574;51.072;17.174;2023-11-19T03:58:01;100215.44;;;2.42;100.00
9077;BME280;4574;51.072;17.174;2023-11-19T04:00:30;100200.59;;;2.43;100.00
9077;BME280;4574;51.072;17.174;2023-11-19T04:02:58;100201.44;;;2.43;100.00
9077;BME280;4574;51.072;17.174;2023-11-19T04:05:27;100191.00;;;2.43;100.00
9077;BME280;4574;51.072;17.174;2023-11-19T04:07:57;100184.91;;;2.43;100.00
9077;BME280;4574;51.072;17.174;2023-11-19T04:10:26;100201.25;;;2.46;100.00
9077;BME280;4574;51.072;17.174;2023-11-19T04:12:55;100199.75;;;2.42;100.00
9077;BME280;4574;51.072;17.174;2023-11-19T04:15:23;100187.44;;;2.44;100.00
9077;BME280;4574;51.072;17.174;2023-11-19T04:17:52;100176.06;;;2.45;100.00
9077;BME280;4574;51.072;17.174;2023-11-19T04:20:21;100168.03;;;2.48;100.00
9077;BME280;4574;51.072;17.174;2023-11-19T04:22:50;100148.16;;;2.46;100.00
9077;BME280;4574;51.072;17.174;2023-11-19T04:25:20;100127.16;;;2.47;100.00
9077;BME280;4574;51.072;17.174;2023-11-19T04:27:49;100121.22;;;2.45;100.00
9077;BME280;4574;51.072;17.174;2023-11-19T04:30:18;100126.22;;;2.48;100.00
9077;BME280;4574;51.072;17.174;2023-11-19T04:32:46;100105.13;;;2.51;100.00
9077;BME280;4574;51.072;17.174;2023-11-19T04:35:15;100101.66;;;2.51;100.00
9077;BME280;4574;51.072;17.174;2023-11-19T04:37:44;100097.19;;;2.53;100.00
9077;BME280;4574;51.072;17.174;2023-11-19T04:40:13;100082.38;;;2.53;100.00
9077;BME280;4574;51.072;17.174;2023-11-19T04:42:43;100068.38;;;2.54;100.00
9077;BME280;4574;51.072;17.174;2023-11-19T04:45:12;100072.84;;;2.52;100.00
9077;BME280;4574;51.072;17.174;2023-11-19T04:47:40;100077.22;;;2.52;100.00
9077;BME280;4574;51.072;17.174;2023-11-19T04:50:09;100083.31;;;2.52;100.00
9077;BME280;4574;51.072;17.174;2023-11-19T04:52:38;100086.56;;;2.56;100.00
9077;BME280;4574;51.072;17.174;2023-11-19T04:55:09;100087.59;;;2.53;100.00
9077;BME280;4574;51.072;17.174;2023-11-19T04:57:39;100073.38;;;2.57;100.00
9077;BME280;4574;51.072;17.174;2023-11-19T05:00:11;100076.66;;;2.61;100.00
9077;BME280;4574;51.072;17.174;2023-11-19T05:02:44;100084.28;;;2.63;100.00
9077;BME280;4574;51.072;17.174;2023-11-19T05:05:12;100071.72;;;2.56;100.00
9077;BME280;4574;51.072;17.174;2023-11-19T05:07:41;100070.56;;;2.60;100.00
9077;BME280;4574;51.072;17.174;2023-11-19T05:10:10;100068.69;;;2.62;100.00
9077;BME280;4574;51.072;17.174;2023-11-19T05:12:38;100066.00;;;2.63;100.00
9077;BME280;4574;51.072;17.174;2023-11-19T05:15:10;100065.06;;;2.64;100.00
9077;BME280;4574;51.072;17.174;2023-11-19T05:17:39;100055.56;;;2.63;100.00
9077;BME280;4574;51.072;17.174;2023-11-19T05:20:08;100052.72;;;2.66;100.00
9077;BME280;4574;51.072;17.174;2023-11-19T05:22:41;100039.56;;;2.68;100.00
9077;BME280;4574;51.072;17.174;2023-11-19T05:25:09;100025.56;;;2.69;100.00
9077;BME280;4574;51.072;17.174;2023-11-19T05:27:38;99999.31;;;2.58;100.00
9077;BME280;4574;51.072;17.174;2023-11-19T05:30:07;100007.25;;;2.69;100.00
9077;BME280;4574;51.072;17.174;2023-11-19T05:32:39;100009.06;;;2.68;100.00
9077;BME280;4574;51.072;17.174;2023-11-19T05:35:08;100006.31;;;2.70;100.00
9077;BME280;4574;51.072;17.174;2023-11-19T05:37:37;99987.09;;;2.71;100.00
9077;BME280;4574;51.072;17.174;2023-11-19T05:40:07;99957.50;;;2.58;100.00
9077;BME280;4574;51.072;17.174;2023-11-19T05:42:42;99995.66;;;2.73;100.00
9077;BME280;4574;51.072;17.174;2023-11-19T05:45:11;100000.69;;;2.76;100.00
9077;BME280;4574;51.072;17.174;2023-11-19T05:47:42;100003.09;;;2.79;100.00
9077;BME280;4574;51.072;17.174;2023-11-19T05:50:11;99991.38;;;2.72;100.00
9077;BME280;4574;51.072;17.174;2023-11-19T05:52:39;99995.03;;;2.82;100.00
9077;BME280;4574;51.072;17.174;2023-11-19T05:55:08;99982.19;;;2.79;100.00
9077;BME280;4574;51.072;17.174;2023-11-19T05:57:38;99975.59;;;2.86;100.00
9077;BME280;4574;51.072;17.174;2023-11-19T06:00:10;99977.47;;;2.84;100.00
9077;BME280;4574;51.072;17.174;2023-11-19T06:02:41;99963.25;;;2.88;100.00
9077;BME280;4574;51.072;17.174;2023-11-19T06:05:10;99959.69;;;2.89;100.00
9077;BME280;4574;51.072;17.174;2023-11-19T06:07:39;99963.03;;;2.91;100.00
9077;BME280;4574;51.072;17.174;2023-11-19T06:10:09;99969.94;;;2.92;100.00
9077;BME280;4574;51.072;17.174;2023-11-19T06:12:38;99958.75;;;2.90;100.00
9077;BME280;4574;51.072;17.174;2023-11-19T06:15:09;99959.50;;;2.92;100.00
9077;BME280;4574;51.072;17.174;2023-11-19T06:17:38;99962.84;;;2.94;100.00
9077;BME280;4574;51.072;17.174;2023-11-19T06:20:10;99960.75;;;2.99;100.00
9077;BME280;4574;51.072;17.174;2023-11-19T06:22:39;99953.84;;;2.98;100.00
9077;BME280;4574;51.072;17.174;2023-11-19T06:25:09;99959.72;;;3.01;100.00
9077;BME280;4574;51.072;17.174;2023-11-19T06:27:41;99955.50;;;2.99;100.00
9077;BME280;4574;51.072;17.174;2023-11-19T06:30:11;99947.47;;;3.02;100.00
9077;BME280;4574;51.072;17.174;2023-11-19T06:32:39;99937.94;;;3.01;100.00
9077;BME280;4574;51.072;17.174;2023-11-19T06:35:10;99943.16;;;3.01;100.00
9077;BME280;4574;51.072;17.174;2023-11-19T06:37:39;99909.75;;;2.93;100.00
9077;BME280;4574;51.072;17.174;2023-11-19T06:40:08;99930.81;;;3.03;100.00
9077;BME280;4574;51.072;17.174;2023-11-19T06:42:37;99928.72;;;3.08;100.00
9077;BME280;4574;51.072;17.174;2023-11-19T06:45:07;99917.44;;;3.07;100.00
9077;BME280;4574;51.072;17.174;2023-11-19T06:47:36;99908.66;;;3.08;100.00
9077;BME280;4574;51.072;17.174;2023-11-19T06:50:06;99909.28;;;3.12;100.00
9077;BME280;4574;51.072;17.174;2023-11-19T06:52:37;99912.00;;;3.10;100.00
9077;BME280;4574;51.072;17.174;2023-11-19T06:55:07;99908.44;;;3.11;100.00
9077;BME280;4574;51.072;17.174;2023-11-19T06:57:36;99898.00;;;3.11;100.00
9077;BME280;4574;51.072;17.174;2023-11-19T07:00:06;99885.00;;;3.10;100.00
9077;BME280;4574;51.072;17.174;2023-11-19T07:02:35;99887.41;;;3.13;100.00
9077;BME280;4574;51.072;17.174;2023-11-19T07:05:04;99881.22;;;3.14;100.00
9077;BME280;4574;51.072;17.174;2023-11-19T07:07:33;99861.97;;;3.15;100.00
9077;BME280;4574;51.072;17.174;2023-11-19T07:10:10;99824.00;;;2.98;100.00
9077;BME280;4574;51.072;17.174;2023-11-19T07:12:43;99860.94;;;3.17;100.00
9077;BME280;4574;51.072;17.174;2023-11-19T07:15:12;99861.75;;;3.18;100.00
9077;BME280;4574;51.072;17.174;2023-11-19T07:17:40;99855.59;;;3.19;100.00
9077;BME280;4574;51.072;17.174;2023-11-19T07:20:11;99861.69;;;3.19;100.00
9077;BME280;4574;51.072;17.174;2023-11-19T07:22:43;99852.53;;;3.25;100.00
9077;BME280;4574;51.072;17.174;2023-11-19T07:25:14;99854.00;;;3.29;100.00
9077;BME280;4574;51.072;17.174;2023-11-19T07:27:43;99850.44;;;3.30;100.00
9077;BME280;4574;51.072;17.174;2023-11-19T07:30:12;99836.41;;;3.31;100.00
9077;BME280;4574;51.072;17.174;2023-11-19T07:32:40;99847.59;;;3.33;100.00
9077;BME280;4574;51.072;17.174;2023-11-19T07:35:10;99842.25;;;3.34;100.00
9077;BME280;4574;51.072;17.174;2023-11-19T07:37:38;99842.75;;;3.39;100.00
9077;BME280;4574;51.072;17.174;2023-11-19T07:40:08;99840.25;;;3.38;100.00
9077;BME280;4574;51.072;17.174;2023-11-19T07:42:39;99844.34;;;3.42;100.00
9077;BME280;4574;51.072;17.174;2023-11-19T07:45:09;99840.06;;;3.41;100.00
9077;BME280;4574;51.072;17.174;2023-11-19T07:47:40;99835.31;;;3.46;100.00
9077;BME280;4574;51.072;17.174;2023-11-19T07:50:09;99829.16;;;3.47;100.00
9077;BME280;4574;51.072;17.174;2023-11-19T07:52:38;99835.09;;;3.49;100.00
9077;BME280;4574;51.072;17.174;2023-11-19T07:55:07;99818.31;;;3.51;100.00
9077;BME280;4574;51.072;17.174;2023-11-19T07:57:36;99805.38;;;3.50;100.00
9077;BME280;4574;51.072;17.174;2023-11-19T08:00:08;99808.94;;;3.49;100.00
9077;BME280;4574;51.072;17.174;2023-11-19T08:02:39;99817.59;;;3.49;100.00
9077;BME280;4574;51.072;17.174;2023-11-19T08:05:08;99813.00;;;3.53;100.00
9077;BME280;4574;51.072;17.174;2023-11-19T08:07:36;99822.50;;;3.54;100.00
9077;BME280;4574;51.072;17.174;2023-11-19T08:10:06;99811.81;;;3.57;100.00
9077;BME280;4574;51.072;17.174;2023-11-19T08:12:37;99801.34;;;3.57;100.00
9077;BME280;4574;51.072;17.174;2023-11-19T08:15:07;99793.50;;;3.57;100.00
9077;BME280;4574;51.072;17.174;2023-11-19T08:17:36;99782.09;;;3.58;100.00
9077;BME280;4574;51.072;17.174;2023-11-19T08:20:06;99771.41;;;3.61;100.00
9077;BME280;4574;51.072;17.174;2023-11-19T08:22:37;99782.91;;;3.58;100.00
9077;BME280;4574;51.072;17.174;2023-11-19T08:25:06;99776.72;;;3.59;100.00
9077;BME280;4574;51.072;17.174;2023-11-19T08:27:35;99768.28;;;3.56;100.00
9077;BME280;4574;51.072;17.174;2023-11-19T08:30:04;99769.81;;;3.58;100.00
9077;BME280;4574;51.072;17.174;2023-11-19T08:32:35;99764.38;;;3.61;100.00
9077;BME280;4574;51.072;17.174;2023-11-19T08:35:04;99760.22;;;3.59;100.00
9077;BME280;4574;51.072;17.174;2023-11-19T08:37:33;99759.50;;;3.57;100.00
9077;BME280;4574;51.072;17.174;2023-11-19T08:40:04;99749.34;;;3.52;100.00
9077;BME280;4574;51.072;17.174;2023-11-19T08:42:34;99746.50;;;3.55;100.00
9077;BME280;4574;51.072;17.174;2023-11-19T08:45:04;99736.41;;;3.51;100.00
9077;BME280;4574;51.072;17.174;2023-11-19T08:47:32;99739.84;;;3.51;100.00
9077;BME280;4574;51.072;17.174;2023-11-19T08:50:03;99731.50;;;3.46;100.00
9077;BME280;4574;51.072;17.174;2023-11-19T08:52:32;99717.69;;;3.44;100.00
9077;BME280;4574;51.072;17.174;2023-11-19T08:55:01;99706.13;;;3.36;100.00
9077;BME280;4574;51.072;17.174;2023-11-19T08:57:32;99697.00;;;3.41;100.00
9077;BME280;4574;51.072;17.174;2023-11-19T09:00:00;99691.16;;;3.38;100.00
9077;BME280;4574;51.072;17.174;2023-11-19T09:02:29;99675.69;;;3.35;100.00
9077;BME280;4574;51.072;17.174;2023-11-19T09:04:59;99678.94;;;3.38;100.00
9077;BME280;4574;51.072;17.174;2023-11-19T09:07:30;99683.22;;;3.39;100.00
9077;BME280;4574;51.072;17.174;2023-11-19T09:09:59;99677.88;;;3.41;100.00
9077;BME280;4574;51.072;17.174;2023-11-19T09:12:27;99674.19;;;3.43;100.00
9077;BME280;4574;51.072;17.174;2023-11-19T09:14:56;99659.34;;;3.44;100.00
9077;BME280;4574;51.072;17.174;2023-11-19T09:17:24;99650.53;;;3.45;100.00
9077;BME280;4574;51.072;17.174;2023-11-19T09:19:53;99653.25;;;3.43;100.00
9077;BME280;4574;51.072;17.174;2023-11-19T09:22:21;99665.16;;;3.47;100.00
9077;BME280;4574;51.072;17.174;2023-11-19T09:24:51;99666.00;;;3.48;100.00
9077;BME280;4574;51.072;17.174;2023-11-19T09:27:19;99654.34;;;3.52;100.00
9077;BME280;4574;51.072;17.174;2023-11-19T09:29:48;99640.56;;;3.50;100.00
9077;BME280;4574;51.072;17.174;2023-11-19T09:32:21;99644.72;;;3.52;100.00
9077;BME280;4574;51.072;17.174;2023-11-19T09:34:50;99639.97;;;3.57;100.00
9077;BME280;4574;51.072;17.174;2023-11-19T09:37:19;99630.69;;;3.53;100.00
9077;BME280;4574;51.072;17.174;2023-11-19T09:39:48;99630.69;;;3.64;100.00
9077;BME280;4574;51.072;17.174;2023-11-19T09:42:18;99638.19;;;3.69;100.00
9077;BME280;4574;51.072;17.174;2023-11-19T09:44:47;99627.59;;;3.70;100.00
9077;BME280;4574;51.072;17.174;2023-11-19T09:47:17;99627.50;;;3.72;100.00
9077;BME280;4574;51.072;17.174;2023-11-19T09:49:48;99629.63;;;3.78;100.00
9077;BME280;4574;51.072;17.174;2023-11-19T09:52:17;99631.78;;;3.84;100.00
9077;BME280;4574;51.072;17.174;2023-11-19T09:54:46;99623.78;;;3.85;100.00
9077;BME280;4574;51.072;17.174;2023-11-19T09:57:17;99610.47;;;3.88;100.00
9077;BME280;4574;51.072;17.174;2023-11-19T09:59:46;99603.56;;;3.87;100.00
9077;BME280;4574;51.072;17.174;2023-11-19T10:02:16;99602.84;;;3.96;100.00
9077;BME280;4574;51.072;17.174;2023-11-19T10:04:46;99593.94;;;3.98;100.00
9077;BME280;4574;51.072;17.174;2023-11-19T10:07:16;99587.50;;;4.02;100.00
9077;BME280;4574;51.072;17.174;2023-11-19T10:09:46;99579.41;;;4.05;100.00
9077;BME280;4574;51.072;17.174;2023-11-19T10:12:14;99555.59;;;3.97;100.00
9077;BME280;4574;51.072;17.174;2023-11-19T10:14:46;99561.53;;;4.10;100.00
9077;BME280;4574;51.072;17.174;2023-11-19T10:17:18;99563.19;;;4.11;100.00
9077;BME280;4574;51.072;17.174;2023-11-19T10:19:47;99553.28;;;4.15;100.00
9077;BME280;4574;51.072;17.174;2023-11-19T10:22:15;99545.31;;;4.16;100.00
9077;BME280;4574;51.072;17.174;2023-11-19T10:24:45;99539.84;;;4.19;100.00
9077;BME280;4574;51.072;17.174;2023-11-19T10:27:20;99537.78;;;4.23;100.00
9077;BME280;4574;51.072;17.174;2023-11-19T10:29:50;99519.47;;;4.23;100.00
9077;BME280;4574;51.072;17.174;2023-11-19T10:32:18;99521.97;;;4.24;100.00
9077;BME280;4574;51.072;17.174;2023-11-19T10:35:04;99512.66;;;4.31;100.00
9077;BME280;4574;51.072;17.174;2023-11-19T10:37:33;99502.53;;;4.38;100.00
9077;BME280;4574;51.072;17.174;2023-11-19T10:40:05;99479.97;;;4.46;100.00
9077;BME280;4574;51.072;17.174;2023-11-19T10:42:37;99469.22;;;4.49;100.00
9077;BME280;4574;51.072;17.174;2023-11-19T10:45:21;99481.13;;;4.53;100.00
9077;BME280;4574;51.072;17.174;2023-11-19T10:47:51;99475.63;;;4.56;100.00
9077;BME280;4574;51.072;17.174;2023-11-19T10:50:20;99480.34;;;4.62;100.00
9077;BME280;4574;51.072;17.174;2023-11-19T10:52:52;99483.69;;;4.64;100.00
9077;BME280;4574;51.072;17.174;2023-11-19T10:55:27;99484.53;;;4.65;100.00
9077;BME280;4574;51.072;17.174;2023-11-19T10:58:00;99474.41;;;4.60;100.00
9077;BME280;4574;51.072;17.174;2023-11-19T11:00:39;99470.22;;;4.69;100.00
9077;BME280;4574;51.072;17.174;2023-11-19T11:03:16;99471.72;;;4.71;100.00
9077;BME280;4574;51.072;17.174;2023-11-19T11:05:46;99466.75;;;4.68;100.00
9077;BME280;4574;51.072;17.174;2023-11-19T11:08:16;99463.88;;;4.71;100.00
9077;BME280;4574;51.072;17.174;2023-11-19T11:10:45;99467.31;;;4.72;100.00
9077;BME280;4574;51.072;17.174;2023-11-19T11:13:17;99458.25;;;4.76;100.00
9077;BME280;4574;51.072;17.174;2023-11-19T11:15:48;99443.47;;;4.75;100.00
9077;BME280;4574;51.072;17.174;2023-11-19T11:18:17;99453.31;;;4.82;100.00
9077;BME280;4574;51.072;17.174;2023-11-19T11:20:46;99454.72;;;4.86;100.00
9077;BME280;4574;51.072;17.174;2023-11-19T11:23:33;99446.28;;;4.83;100.00
9077;BME280;4574;51.072;17.174;2023-11-19T11:26:19;99436.94;;;4.90;100.00
9077;BME280;4574;51.072;17.174;2023-11-19T11:28:57;99444.66;;;4.91;100.00
9077;BME280;4574;51.072;17.174;2023-11-19T11:31:36;99424.66;;;4.90;100.00
9077;BME280;4574;51.072;17.174;2023-11-19T11:34:36;99447.47;;;4.99;100.00
9077;BME280;4574;51.072;17.174;2023-11-19T11:37:16;99444.56;;;5.02;100.00
9077;BME280;4574;51.072;17.174;2023-11-19T11:39:47;99435.47;;;5.06;100.00
9077;BME280;4574;51.072;17.174;2023-11-19T11:42:33;99435.94;;;5.11;100.00
9077;BME280;4574;51.072;17.174;2023-11-19T11:45:03;99428.63;;;5.15;100.00
9077;BME280;4574;51.072;17.174;2023-11-19T11:50:53;99436.66;;;5.22;100.00
9077;BME280;4574;51.072;17.174;2023-11-19T11:53:25;99422.47;;;5.25;100.00
9077;BME280;4574;51.072;17.174;2023-11-19T11:55:55;99411.84;;;5.26;100.00
9077;BME280;4574;51.072;17.174;2023-11-19T11:58:28;99400.25;;;5.29;100.00
9077;BME280;4574;51.072;17.174;2023-11-19T12:01:01;99420.72;;;5.35;100.00
9077;BME280;4574;51.072;17.174;2023-11-19T12:03:31;99409.81;;;5.39;100.00
9077;BME280;4574;51.072;17.174;2023-11-19T12:06:01;99406.22;;;5.40;100.00
9077;BME280;4574;51.072;17.174;2023-11-19T12:08:30;99413.81;;;5.43;100.00
9077;BME280;4574;51.072;17.174;2023-11-19T12:10:59;99399.03;;;5.42;100.00
9077;BME280;4574;51.072;17.174;2023-11-19T12:13:47;99401.28;;;5.47;100.00
9077;BME280;4574;51.072;17.174;2023-11-19T12:16:16;99398.09;;;5.53;100.00
9077;BME280;4574;51.072;17.174;2023-11-19T12:18:47;99388.84;;;5.58;100.00
9077;BME280;4574;51.072;17.174;2023-11-19T12:21:32;99380.56;;;5.63;100.00
9077;BME280;4574;51.072;17.174;2023-11-19T12:24:04;99383.63;;;5.68;100.00
9077;BME280;4574;51.072;17.174;2023-11-19T12:26:38;99372.28;;;5.67;100.00
9077;BME280;4574;51.072;17.174;2023-11-19T12:29:07;99367.59;;;5.71;100.00
9077;BME280;4574;51.072;17.174;2023-11-19T12:31:36;99365.50;;;5.74;100.00
9077;BME280;4574;51.072;17.174;2023-11-19T12:34:07;99367.63;;;5.80;100.00
9077;BME280;4574;51.072;17.174;2023-11-19T12:36:41;99362.09;;;5.83;100.00
9077;BME280;4574;51.072;17.174;2023-11-19T12:39:10;99362.66;;;5.87;100.00
9077;BME280;4574;51.072;17.174;2023-11-19T12:41:52;99364.03;;;5.91;100.00
9077;BME280;4574;51.072;17.174;2023-11-19T12:44:22;99344.69;;;5.92;100.00
9077;BME280;4574;51.072;17.174;2023-11-19T12:47:01;99365.16;;;5.98;100.00
9077;BME280;4574;51.072;17.174;2023-11-19T12:49:30;99356.19;;;6.00;100.00
9077;BME280;4574;51.072;17.174;2023-11-19T12:52:00;99353.41;;;6.02;100.00
9077;BME280;4574;51.072;17.174;2023-11-19T12:54:34;99356.31;;;6.08;100.00
9077;BME280;4574;51.072;17.174;2023-11-19T12:57:04;99349.94;;;6.11;100.00
9077;BME280;4574;51.072;17.174;2023-11-19T12:59:33;99325.47;;;6.01;100.00
9077;BME280;4574;51.072;17.174;2023-11-19T13:02:02;99342.47;;;6.16;100.00
9077;BME280;4574;51.072;17.174;2023-11-19T13:04:33;99336.91;;;6.19;100.00
9077;BME280;4574;51.072;17.174;2023-11-19T13:07:03;99334.00;;;6.22;100.00
9077;BME280;4574;51.072;17.174;2023-11-19T13:09:32;99338.00;;;6.26;100.00
9077;BME280;4574;51.072;17.174;2023-11-19T13:12:12;99328.34;;;6.26;100.00
9077;BME280;4574;51.072;17.174;2023-11-19T13:14:41;99314.53;;;6.24;100.00
9077;BME280;4574;51.072;17.174;2023-11-19T13:17:14;99304.25;;;6.31;100.00
9077;BME280;4574;51.072;17.174;2023-11-19T13:19:43;99309.78;;;6.37;100.00
9077;BME280;4574;51.072;17.174;2023-11-19T13:22:13;99300.13;;;6.28;100.00
9077;BME280;4574;51.072;17.174;2023-11-19T13:24:42;99313.63;;;6.43;100.00
9077;BME280;4574;51.072;17.174;2023-11-19T13:27:10;99310.03;;;6.44;100.00